createdAt,value
2022-12-31T00:07:29.712Z,980.96
2022-12-31T00:19:30.200Z,981.19
2022-12-31T00:31:30.778Z,981.37
2022-12-31T00:43:31.067Z,981.50
2022-12-31T00:55:31.564Z,981.43
2022-12-31T01:07:31.985Z,981.75
2022-12-31T01:19:32.422Z,981.90
2022-12-31T01:31:32.875Z,981.87
2022-12-31T01:43:33.390Z,982.07
2022-12-31T01:55:33.800Z,982.29
2022-12-31T02:07:34.240Z,982.23
2022-12-31T02:19:34.690Z,982.27
2022-12-31T02:31:35.178Z,982.35
2022-12-31T02:43:35.584Z,982.39
2022-12-31T02:55:36.069Z,982.58
2022-12-31T03:07:36.499Z,982.70
2022-12-31T03:19:36.926Z,982.80
2022-12-31T03:31:37.442Z,982.85
2022-12-31T03:43:37.893Z,982.92
2022-12-31T03:55:38.344Z,982.95
2022-12-31T04:07:38.820Z,983.22
2022-12-31T04:19:39.205Z,983.50
2022-12-31T04:31:39.716Z,983.59
2022-12-31T04:43:40.116Z,983.76
2022-12-31T04:55:40.594Z,983.96
2022-12-31T05:07:41.033Z,983.84
2022-12-31T05:19:41.477Z,983.91
2022-12-31T05:31:41.915Z,983.84
2022-12-31T05:43:42.433Z,984.00
2022-12-31T05:55:42.857Z,984.16
2022-12-31T06:07:43.260Z,984.34
2022-12-31T06:19:43.713Z,984.69
2022-12-31T06:31:44.186Z,984.79
2022-12-31T06:43:44.618Z,984.94
2022-12-31T06:55:45.115Z,985.05
2022-12-31T07:07:45.548Z,985.13
2022-12-31T07:19:45.999Z,984.96
2022-12-31T07:31:46.466Z,985.07
2022-12-31T07:43:46.896Z,985.04
2022-12-31T07:55:47.319Z,985.37
2022-12-31T08:07:47.942Z,985.50
2022-12-31T08:19:48.496Z,985.60
2022-12-31T08:31:48.678Z,985.54
2022-12-31T08:43:49.167Z,985.49
2022-12-31T08:55:49.637Z,985.58
2022-12-31T09:07:50.116Z,985.56
2022-12-31T09:19:50.486Z,985.56
2022-12-31T09:31:50.954Z,985.45
2022-12-31T09:43:54.568Z,985.26
2022-12-31T09:55:51.886Z,985.47
2022-12-31T10:07:53.676Z,985.22
2022-12-31T10:19:52.768Z,985.37
2022-12-31T10:31:53.257Z,985.45
2022-12-31T10:43:53.713Z,985.41
2022-12-31T10:55:54.171Z,985.49
2022-12-31T11:07:54.766Z,985.51
2022-12-31T11:19:55.069Z,985.48
2022-12-31T11:31:55.541Z,985.46
2022-12-31T11:43:55.952Z,985.42
2022-12-31T11:55:56.430Z,985.24
2022-12-31T12:07:56.889Z,985.31
2022-12-31T12:19:57.363Z,985.19
2022-12-31T12:31:57.800Z,985.34
2022-12-31T12:43:58.209Z,985.32
2022-12-31T12:55:58.744Z,985.25
2022-12-31T13:07:59.152Z,985.17
2022-12-31T13:19:59.622Z,985.14
2022-12-31T13:32:00.081Z,984.98
2022-12-31T13:44:00.516Z,985.11
2022-12-31T13:56:00.983Z,985.03
2022-12-31T14:08:01.455Z,985.20
2022-12-31T14:20:01.886Z,985.27
2022-12-31T14:32:02.395Z,985.41
2022-12-31T14:44:02.826Z,985.53
2022-12-31T14:56:03.219Z,985.52
2022-12-31T15:08:03.684Z,985.47
2022-12-31T15:20:04.167Z,985.46
2022-12-31T15:32:04.629Z,985.72
2022-12-31T15:44:05.025Z,985.85
2022-12-31T15:56:05.509Z,985.89
2022-12-31T16:08:06.627Z,985.80
2022-12-31T16:20:06.433Z,985.91
2022-12-31T16:32:06.862Z,985.75
2022-12-31T16:44:07.347Z,985.87
2022-12-31T16:56:07.771Z,985.90
2022-12-31T17:08:08.226Z,985.94
2022-12-31T17:20:08.697Z,985.84
2022-12-31T17:32:09.097Z,985.90
2022-12-31T17:44:09.593Z,985.81
2022-12-31T17:56:10.058Z,985.80
2022-12-31T18:08:10.492Z,985.76
2022-12-31T18:20:10.940Z,985.71
2022-12-31T18:32:11.461Z,985.66
2022-12-31T18:44:11.894Z,985.68
2022-12-31T18:56:12.342Z,985.69
2022-12-31T19:08:12.796Z,985.59
2022-12-31T19:20:13.264Z,985.64
2022-12-31T19:32:14.892Z,985.42
2022-12-31T19:44:14.124Z,985.63
2022-12-31T19:56:14.601Z,985.60
2022-12-31T20:08:15.053Z,985.52
2022-12-31T20:20:15.514Z,985.41
2022-12-31T20:32:15.968Z,985.27
2022-12-31T20:44:16.411Z,985.21
2022-12-31T20:56:16.912Z,985.15
2022-12-31T21:08:17.330Z,985.06
2022-12-31T21:20:17.786Z,985.04
2022-12-31T21:32:18.248Z,985.05
2022-12-31T21:44:18.665Z,985.15
2022-12-31T21:56:19.104Z,985.08
2022-12-31T22:08:19.633Z,985.03
2022-12-31T22:20:28.173Z,984.95
2022-12-31T22:32:20.500Z,984.74
2022-12-31T22:44:20.950Z,984.64
2022-12-31T22:56:21.419Z,984.55
2022-12-31T23:08:23.764Z,984.56
2022-12-31T23:20:22.308Z,984.39
2022-12-31T23:32:22.762Z,984.35
2022-12-31T23:44:23.229Z,984.44
2022-12-31T23:56:24.226Z,984.52
